Create Tblcommutelog Verified Points Advance Search
| # | Trip ID | Id Commuter | Trip Date | Trip Num | Current Lat | Current Lng | Delta Distance | Current Time | Activity | Activity Confidence | Current Speed | |
|---|---|---|---|---|---|---|---|---|---|---|---|---|
| 73221 | 250625_781438_16649118_1635 | 781438 | (not set) | (not set) | 38.9238024 | -77.0650199 | 2.3763 | 2025-06-25 20:56:24.826 | in_vehicle | 100 | 3.2589161980205 | |
| 73222 | 250625_781438_16649118_1635 | 781438 | (not set) | (not set) | 38.911404 | -77.0487934 | 1.12 | 2025-06-25 20:56:24.83 | walking | 100 | 2.1681404060905 | |
| 73223 | 250625_781438_16649118_1635 | 781438 | (not set) | (not set) | 38.9241654 | -77.0660871 | 2.439 | 2025-06-25 20:56:24.888 | in_vehicle | 100 | 2.9102255760101 | |
| 73224 | 250625_781438_16649118_1635 | 781438 | (not set) | (not set) | 38.9247172 | -77.070714 | 2.6961 | 2025-06-25 20:56:24.891 | on_bicycle | 100 | 2.5034198503313 | |
| 73225 | 250625_781438_16649118_1635 | 781438 | (not set) | (not set) | 38.924759 | -77.0683481 | 2.5685 | 2025-06-25 20:56:24.891 | on_bicycle | 100 | 2.8163473316227 | |
| 73226 | 250625_781438_16649118_1635 | 781438 | (not set) | (not set) | 38.9200563 | -77.0616165 | 2.052 | 2025-06-25 20:56:24.93 | in_vehicle | 100 | 3.1337452055039 | |
| 73227 | 250625_785785_16653981_1648 | 785785 | (not set) | (not set) | 38.898267228668 | -77.086937994022 | 3.0946 | 2025-06-25 20:56:25.334 | in_vehicle | 100 | 10.487541015852 | |
| 73228 | 250625_765254_16632172_1645 | 765254 | (not set) | (not set) | 39.403309213999 | -76.615277831044 | 0.6338 | 2025-06-25 20:56:25.386 | running | 100 | 3.2633865906104 | |
| 73229 | 250625_783292_16651014_1606 | 783292 | (not set) | (not set) | 38.912226932449 | -76.928096246658 | 4.1611 | 2025-06-25 20:56:27.272 | in_vehicle | 100 | 9.3073573721244 | |
| 73230 | 250625_669170_16518531_1617 | 669170 | (not set) | (not set) | 39.089982617267 | -77.150294584397 | 16.5703 | 2025-06-25 20:56:30.176 | in_vehicle | 100 | 7.7963646767459 | |
| 73231 | 250625_785521_16653675_1622 | 785521 | (not set) | (not set) | 39.239882379807 | -76.691165193987 | 24.6608 | 2025-06-25 20:56:31.094 | in_vehicle | 100 | 5.136481085769 | |
| 73232 | 250625_785521_16653675_1622 | 785521 | (not set) | (not set) | 39.267160036064 | -76.679576016135 | 24.6608 | 2025-06-25 20:56:31.099 | in_vehicle | 100 | -0.44703925898772 | |
| 73233 | 250625_785147_16653236_1638 | 785147 | (not set) | (not set) | 38.937341733333 | -77.539052283333 | 8.0954 | 2025-06-25 20:56:31.54 | in_vehicle | 100 | 7.4744964102747 | |
| 73234 | 250625_785785_16653981_1648 | 785785 | (not set) | (not set) | 38.898325235783 | -77.08904804182 | 3.2084 | 2025-06-25 20:56:32.328 | in_vehicle | 100 | 11.439734637496 | |
| 73235 | 250625_780857_0_1652 | 780857 | (not set) | (not set) | 38.900958545925 | -77.041710872099 | 0.1821 | 2025-06-25 20:56:32.723 | on_foot | 100 | -0.44703925898772 | |
| 73236 | 250625_780857_0_1652 | 780857 | (not set) | (not set) | 38.900958545925 | -77.041710872099 | 0 | 2025-06-25 20:56:32.726 | on_foot | 100 | -0.44703925898772 | |
| 73237 | 250625_781975_16654380_1637 | 781975 | (not set) | (not set) | 38.896696905064 | -77.032001858512 | 2.1555 | 2025-06-25 20:56:32.941 | in_vehicle | 100 | 0 | |
| 73238 | 250625_786644_16655015_1656 | 786644 | (not set) | (not set) | 39.3346859 | -76.4940438 | 0.223 | 2025-06-25 20:56:33.083 | walking | 100 | 6.9648716550287 | |
| 73239 | 250625_711925_16573309_1654 | 711925 | (not set) | (not set) | 38.855498718476 | -76.996070034636 | 0.0872 | 2025-06-25 20:56:33.175 | on_foot | 100 | 4.4525110195177 | |
| 73240 | 250625_785521_16653675_1622 | 785521 | (not set) | (not set) | 39.268351052924 | -76.681277062815 | 26.695 | 2025-06-25 20:56:33.272 | in_vehicle | 100 | 8.8469069353671 |